createdAt,value
2018-08-03T00:00:23.186Z,20
2018-08-03T00:01:23.096Z,20
2018-08-03T00:02:23.007Z,20
2018-08-03T00:03:22.909Z,19.9
2018-08-03T00:04:22.814Z,19.8
2018-08-03T00:05:22.730Z,19.8
2018-08-03T00:06:22.633Z,19.8
2018-08-03T00:07:22.571Z,19.8
2018-08-03T00:08:22.467Z,19.9
2018-08-03T00:09:22.365Z,19.8
2018-08-03T00:10:22.733Z,19.8
2018-08-03T00:11:22.637Z,19.8
2018-08-03T00:12:22.571Z,19.8
2018-08-03T00:13:22.693Z,19.8
2018-08-03T00:14:22.593Z,19.8
2018-08-03T00:15:22.498Z,19.8
2018-08-03T00:16:22.408Z,19.9
2018-08-03T00:17:22.528Z,19.8
2018-08-03T00:18:22.441Z,19.8
2018-08-03T00:19:22.352Z,19.9
2018-08-03T00:20:22.683Z,19.9
2018-08-03T00:21:22.585Z,20
2018-08-03T00:22:25.591Z,19.9
2018-08-03T00:23:25.508Z,20
2018-08-03T00:24:25.421Z,20
2018-08-03T00:25:28.262Z,20.1
2018-08-03T00:26:30.965Z,20.1
2018-08-03T00:27:30.906Z,20.1
2018-08-03T00:28:30.838Z,20.1
2018-08-03T00:29:30.735Z,20.1
2018-08-03T00:30:33.922Z,20.2
2018-08-03T00:31:34.837Z,20.2
2018-08-03T00:32:34.747Z,20.1
2018-08-03T00:33:34.679Z,20.1
2018-08-03T00:34:38.219Z,20.1
2018-08-03T00:35:38.118Z,20.1
2018-08-03T00:36:38.031Z,20.2
2018-08-03T00:37:37.929Z,20.3
2018-08-03T00:38:37.852Z,20.3
2018-08-03T00:39:37.784Z,20.4
2018-08-03T00:40:38.342Z,20.3
2018-08-03T00:41:38.241Z,20.3
2018-08-03T00:42:38.137Z,20.3
2018-08-03T00:43:38.039Z,20.3
2018-08-03T00:44:37.948Z,20.3
2018-08-03T00:45:37.850Z,20.3
2018-08-03T00:46:37.752Z,20.3
2018-08-03T00:47:37.661Z,20.2
2018-08-03T00:48:37.772Z,20.1
2018-08-03T00:49:37.695Z,20.1
2018-08-03T00:50:38.030Z,20.1
2018-08-03T00:51:40.805Z,20
2018-08-03T00:52:40.703Z,20
2018-08-03T00:53:40.596Z,19.9
2018-08-03T00:54:40.530Z,19.9
2018-08-03T00:55:44.302Z,19.9
2018-08-03T00:56:44.200Z,19.9
2018-08-03T00:57:44.106Z,20
2018-08-03T00:58:44.238Z,19.9
2018-08-03T00:59:44.186Z,20
2018-08-03T01:00:44.529Z,19.9
2018-08-03T01:01:44.444Z,19.9
2018-08-03T01:02:44.568Z,19.8
2018-08-03T01:03:44.502Z,19.7
2018-08-03T01:04:44.436Z,19.8
2018-08-03T01:05:44.342Z,19.9
2018-08-03T01:06:44.257Z,20
2018-08-03T01:07:44.146Z,20
2018-08-03T01:08:44.054Z,19.9
2018-08-03T01:09:44.388Z,19.9
2018-08-03T01:10:44.774Z,19.9
2018-08-03T01:11:45.663Z,19.9
2018-08-03T01:12:45.618Z,19.9
2018-08-03T01:13:45.528Z,19.9
2018-08-03T01:14:45.425Z,19.9
2018-08-03T01:15:45.366Z,19.9
2018-08-03T01:16:45.279Z,19.9
2018-08-03T01:17:45.181Z,19.9
2018-08-03T01:18:46.076Z,19.9
2018-08-03T01:19:46.038Z,19.9
2018-08-03T01:20:46.399Z,19.9
2018-08-03T01:21:46.326Z,19.8
2018-08-03T01:22:46.229Z,19.8
2018-08-03T01:23:46.155Z,19.8
2018-08-03T01:24:46.092Z,19.8
2018-08-03T01:25:45.987Z,19.8
2018-08-03T01:26:45.931Z,19.7
2018-08-03T01:27:46.054Z,19.7
2018-08-03T01:28:45.956Z,19.7
2018-08-03T01:29:45.875Z,19.7
2018-08-03T01:30:46.214Z,19.7
2018-08-03T01:31:46.203Z,19.8
2018-08-03T01:32:46.114Z,19.8
2018-08-03T01:33:46.012Z,19.8
2018-08-03T01:34:45.922Z,19.7
2018-08-03T01:35:45.860Z,19.6
2018-08-03T01:36:46.716Z,19.5
2018-08-03T01:37:46.828Z,19.5
2018-08-03T01:38:46.885Z,19.4
2018-08-03T01:39:46.789Z,19.4
2018-08-03T01:40:47.170Z,19.4
2018-08-03T01:41:47.080Z,19.3
2018-08-03T01:42:50.015Z,19.3
2018-08-03T01:43:49.985Z,19.4
2018-08-03T01:44:49.896Z,19.4
2018-08-03T01:45:49.804Z,19.5
2018-08-03T01:46:50.502Z,19.5
2018-08-03T01:47:50.417Z,19.5
2018-08-03T01:48:50.314Z,19.4
2018-08-03T01:49:50.230Z,19.4
2018-08-03T01:50:50.607Z,19.4
2018-08-03T01:51:50.506Z,19.4
2018-08-03T01:52:50.415Z,19.4
2018-08-03T01:53:50.328Z,19.4
2018-08-03T01:54:50.225Z,19.4
2018-08-03T01:55:50.127Z,19.2
2018-08-03T01:56:52.784Z,19.3
2018-08-03T01:57:52.705Z,19.2
2018-08-03T01:58:52.627Z,19.1
2018-08-03T01:59:55.752Z,19.1
2018-08-03T02:00:56.081Z,19.2
2018-08-03T02:01:56.006Z,19.2
2018-08-03T02:02:55.957Z,19.1
2018-08-03T02:03:55.879Z,19.2
2018-08-03T02:04:56.793Z,19.2
2018-08-03T02:05:56.695Z,19.2
2018-08-03T02:06:56.620Z,19.3
2018-08-03T02:07:56.525Z,19.4
2018-08-03T02:08:57.431Z,19.2
2018-08-03T02:09:57.341Z,19.3
2018-08-03T02:10:57.680Z,19.3
2018-08-03T02:11:57.620Z,19.4
2018-08-03T02:12:57.537Z,19.4
2018-08-03T02:13:57.438Z,19.4
2018-08-03T02:14:57.343Z,19.4
2018-08-03T02:15:57.256Z,19.5
2018-08-03T02:16:57.173Z,19.4
2018-08-03T02:17:58.087Z,19.5
2018-08-03T02:18:57.989Z,19.5
2018-08-03T02:19:57.917Z,19.4
2018-08-03T02:20:58.275Z,19.4
2018-08-03T02:21:58.181Z,19.3
2018-08-03T02:22:58.085Z,19.4
2018-08-03T02:23:57.998Z,19.2
2018-08-03T02:24:57.943Z,19.2
2018-08-03T02:25:57.837Z,19.3
2018-08-03T02:26:57.761Z,19.3
2018-08-03T02:27:57.666Z,19.3
2018-08-03T02:28:57.572Z,19.3
2018-08-03T02:29:57.467Z,19.3
2018-08-03T02:31:00.724Z,19.3
2018-08-03T02:32:00.665Z,19.2
2018-08-03T02:33:04.435Z,19.2
2018-08-03T02:34:04.349Z,19.3
2018-08-03T02:35:04.256Z,19.3
2018-08-03T02:36:04.178Z,19.4
2018-08-03T02:37:04.142Z,19.4
2018-08-03T02:38:04.049Z,19.5
2018-08-03T02:39:12.588Z,19.6
2018-08-03T02:40:12.535Z,19.6
2018-08-03T02:41:13.107Z,19.5
2018-08-03T02:42:13.053Z,19.4
2018-08-03T02:43:13.014Z,19.4
2018-08-03T02:44:12.946Z,19.5
2018-08-03T02:45:12.856Z,19.4
2018-08-03T02:46:13.779Z,19.4
2018-08-03T02:47:13.698Z,19.4
2018-08-03T02:48:13.634Z,19.4
2018-08-03T02:49:13.557Z,19.5
2018-08-03T02:50:13.453Z,19.3
2018-08-03T02:51:13.842Z,19.3
2018-08-03T02:52:13.759Z,19.2
2018-08-03T02:53:13.759Z,19.2
2018-08-03T02:54:13.655Z,19.1
2018-08-03T02:55:13.551Z,19.2
2018-08-03T02:56:14.459Z,19.2
2018-08-03T02:57:14.372Z,19.2
2018-08-03T02:58:15.308Z,19.2
2018-08-03T02:59:15.216Z,19.1
2018-08-03T03:00:15.111Z,19.1
2018-08-03T03:01:15.504Z,19.1
2018-08-03T03:02:15.405Z,19.1
2018-08-03T03:03:15.305Z,19.1
2018-08-03T03:04:15.241Z,19.1
2018-08-03T03:05:16.136Z,19.1
2018-08-03T03:06:16.034Z,19.2
2018-08-03T03:07:16.043Z,19.2
2018-08-03T03:08:16.091Z,19.2
2018-08-03T03:09:16.021Z,19.2
2018-08-03T03:10:15.913Z,19.3
2018-08-03T03:11:16.280Z,19.3
2018-08-03T03:12:16.182Z,19.3
2018-08-03T03:13:16.083Z,19.4
2018-08-03T03:14:16.016Z,19.3
2018-08-03T03:15:15.979Z,19.4
2018-08-03T03:16:15.877Z,19.4
2018-08-03T03:17:15.773Z,19.4
2018-08-03T03:18:15.727Z,19.3
2018-08-03T03:19:15.632Z,19.2
2018-08-03T03:20:15.554Z,19.2
2018-08-03T03:21:16.132Z,19.1
2018-08-03T03:22:16.058Z,19.2
2018-08-03T03:23:16.029Z,19.2
2018-08-03T03:24:15.924Z,19.2
2018-08-03T03:25:15.850Z,19.2
2018-08-03T03:26:15.782Z,19.2
2018-08-03T03:27:15.704Z,19.2
2018-08-03T03:28:15.611Z,19.2
2018-08-03T03:29:15.511Z,19.2
2018-08-03T03:30:15.451Z,19.2
2018-08-03T03:31:15.809Z,19.3
2018-08-03T03:32:15.721Z,19.3
2018-08-03T03:33:15.624Z,19.2
2018-08-03T03:34:15.576Z,19.1
2018-08-03T03:35:15.488Z,19.2
2018-08-03T03:36:15.389Z,19.1
2018-08-03T03:37:15.315Z,19.1
2018-08-03T03:38:15.255Z,19.1
2018-08-03T03:39:15.159Z,19.1
2018-08-03T03:40:15.079Z,19.1
2018-08-03T03:41:15.439Z,19.1
2018-08-03T03:42:15.345Z,19.1
2018-08-03T03:43:15.240Z,19.1
2018-08-03T03:44:15.151Z,19.1
2018-08-03T03:45:15.094Z,19.2
2018-08-03T03:46:15.004Z,19.1
2018-08-03T03:47:14.977Z,19
2018-08-03T03:48:14.893Z,18.8
2018-08-03T03:49:14.800Z,18.8
2018-08-03T03:50:14.725Z,18.8
2018-08-03T03:51:15.077Z,18.9
2018-08-03T03:52:14.992Z,18.9
2018-08-03T03:53:14.904Z,19
2018-08-03T03:54:15.031Z,19
2018-08-03T03:55:14.943Z,19
2018-08-03T03:56:14.850Z,19.1
2018-08-03T03:57:14.764Z,19.2
2018-08-03T03:58:14.666Z,19.1
2018-08-03T03:59:14.691Z,19.1
2018-08-03T04:00:15.186Z,19.1
2018-08-03T04:01:15.546Z,19.2
2018-08-03T04:02:15.446Z,19.1
2018-08-03T04:03:15.395Z,19
2018-08-03T04:04:15.291Z,19.1
2018-08-03T04:05:15.196Z,19.1
2018-08-03T04:06:15.104Z,19.1
2018-08-03T04:07:15.038Z,19
2018-08-03T04:08:14.941Z,19.1
2018-08-03T04:09:14.869Z,19
2018-08-03T04:10:14.790Z,19
2018-08-03T04:11:15.143Z,18.9
2018-08-03T04:12:15.149Z,18.8
2018-08-03T04:13:15.139Z,18.8
2018-08-03T04:14:15.048Z,18.8
2018-08-03T04:15:14.974Z,18.9
2018-08-03T04:16:14.888Z,18.8
2018-08-03T04:17:14.837Z,18.7
2018-08-03T04:18:14.732Z,18.7
2018-08-03T04:19:14.639Z,18.7
2018-08-03T04:20:14.560Z,18.7
2018-08-03T04:21:17.627Z,18.7
2018-08-03T04:22:17.544Z,18.6
2018-08-03T04:23:17.450Z,18.6
2018-08-03T04:24:17.357Z,18.6
2018-08-03T04:25:17.287Z,18.5
2018-08-03T04:26:17.176Z,18.5
2018-08-03T04:27:17.085Z,18.4
2018-08-03T04:28:16.995Z,18.4
2018-08-03T04:29:17.126Z,18.3
2018-08-03T04:30:17.029Z,18.4
2018-08-03T04:31:17.406Z,18.5
2018-08-03T04:32:17.305Z,18.4
2018-08-03T04:33:17.202Z,18.4
2018-08-03T04:34:17.104Z,18.4
2018-08-03T04:35:17.021Z,18.4
2018-08-03T04:36:17.010Z,18.5
2018-08-03T04:37:16.932Z,18.4
2018-08-03T04:38:17.056Z,18.5
2018-08-03T04:39:17.151Z,18.6
2018-08-03T04:40:17.074Z,18.6
2018-08-03T04:41:17.418Z,18.6
2018-08-03T04:42:17.705Z,18.7
2018-08-03T04:43:18.060Z,18.7
2018-08-03T04:44:17.970Z,18.7
2018-08-03T04:45:17.899Z,18.7
2018-08-03T04:46:17.817Z,18.7
2018-08-03T04:47:17.740Z,18.7
2018-08-03T04:48:20.604Z,18.7
2018-08-03T04:49:20.520Z,18.7
2018-08-03T04:50:20.426Z,18.7
2018-08-03T04:51:20.789Z,18.7
2018-08-03T04:52:20.687Z,18.7
2018-08-03T04:53:20.586Z,18.7
2018-08-03T04:54:20.479Z,18.7
2018-08-03T04:55:20.392Z,18.7
2018-08-03T04:56:20.298Z,18.7
2018-08-03T04:57:20.208Z,18.6
2018-08-03T04:58:20.121Z,18.7
2018-08-03T04:59:20.029Z,18.7
2018-08-03T05:00:19.955Z,18.7
2018-08-03T05:01:20.287Z,18.7
2018-08-03T05:02:20.225Z,18.7
2018-08-03T05:03:20.142Z,18.8
2018-08-03T05:04:21.059Z,18.9
2018-08-03T05:05:20.960Z,18.9
2018-08-03T05:06:20.872Z,19
2018-08-03T05:07:23.666Z,19
2018-08-03T05:08:23.561Z,19
2018-08-03T05:09:23.464Z,19
2018-08-03T05:10:23.366Z,19
2018-08-03T05:11:23.727Z,19.1
2018-08-03T05:12:23.632Z,19.2
2018-08-03T05:13:23.557Z,19.2
2018-08-03T05:14:23.471Z,19.2
2018-08-03T05:15:23.522Z,19.2
2018-08-03T05:16:23.586Z,19.3
2018-08-03T05:17:23.510Z,19.4
2018-08-03T05:18:23.453Z,19.5
2018-08-03T05:19:23.362Z,19.7
2018-08-03T05:20:23.334Z,19.8
2018-08-03T05:21:24.746Z,19.8
2018-08-03T05:22:24.648Z,20
2018-08-03T05:23:27.325Z,20.1
2018-08-03T05:24:27.237Z,20.2
2018-08-03T05:25:27.154Z,20.2
2018-08-03T05:26:27.048Z,20.3
2018-08-03T05:27:26.953Z,20.4
2018-08-03T05:28:26.881Z,20.4
2018-08-03T05:29:26.796Z,20.6
2018-08-03T05:30:26.908Z,20.6
2018-08-03T05:31:28.113Z,20.7
2018-08-03T05:32:28.053Z,20.9
2018-08-03T05:33:27.987Z,21
2018-08-03T05:34:27.896Z,21.1
2018-08-03T05:35:28.013Z,21.2
2018-08-03T05:36:28.129Z,21.4
2018-08-03T05:37:28.039Z,21.5
2018-08-03T05:38:27.969Z,21.5
2018-08-03T05:39:27.923Z,21.7
2018-08-03T05:40:27.894Z,21.7
2018-08-03T05:41:28.257Z,21.8
2018-08-03T05:42:28.322Z,21.9
2018-08-03T05:43:28.379Z,22
2018-08-03T05:44:28.313Z,22.1
2018-08-03T05:45:28.460Z,22.3
2018-08-03T05:46:28.668Z,22.3
2018-08-03T05:47:28.562Z,22.5
2018-08-03T05:48:28.476Z,22.6
2018-08-03T05:49:28.402Z,22.7
2018-08-03T05:50:28.355Z,22.7
2018-08-03T05:51:28.709Z,22.8
2018-08-03T05:52:28.849Z,22.9
2018-08-03T05:53:29.128Z,23
2018-08-03T05:54:29.084Z,23
2018-08-03T05:55:29.010Z,23.1
2018-08-03T05:56:28.914Z,23.2
2018-08-03T05:57:28.827Z,23.3
2018-08-03T05:58:28.742Z,23.4
2018-08-03T05:59:28.697Z,23.5
2018-08-03T06:00:28.648Z,23.6
2018-08-03T06:01:29.012Z,23.6
2018-08-03T06:02:28.958Z,23.7
2018-08-03T06:03:28.877Z,23.9
2018-08-03T06:04:28.800Z,23.8
2018-08-03T06:05:28.733Z,23.7
2018-08-03T06:06:28.655Z,23.8
2018-08-03T06:07:28.573Z,23.9
2018-08-03T06:08:28.492Z,24
2018-08-03T06:09:28.526Z,24.1
2018-08-03T06:10:28.591Z,24.1
2018-08-03T06:11:28.958Z,24.2
2018-08-03T06:12:28.905Z,24.3
2018-08-03T06:13:28.834Z,24.4
2018-08-03T06:14:28.748Z,24.6
2018-08-03T06:15:28.650Z,24.6
2018-08-03T06:16:28.572Z,24.7
2018-08-03T06:17:28.602Z,24.6
2018-08-03T06:18:28.693Z,24.6
2018-08-03T06:19:28.625Z,24.6
2018-08-03T06:20:28.550Z,24.6
2018-08-03T06:21:28.909Z,24.5
2018-08-03T06:22:28.848Z,24.6
2018-08-03T06:23:28.758Z,24.8
2018-08-03T06:24:28.652Z,24.9
2018-08-03T06:25:28.617Z,25
2018-08-03T06:26:28.567Z,25.1
2018-08-03T06:27:28.473Z,25.1
2018-08-03T06:28:28.563Z,25.1
2018-08-03T06:29:28.975Z,25.3
2018-08-03T06:30:29.163Z,25.3
2018-08-03T06:31:29.620Z,25.3
2018-08-03T06:32:29.555Z,25.1
2018-08-03T06:33:29.491Z,25.2
2018-08-03T06:34:29.393Z,25
2018-08-03T06:35:29.307Z,25
2018-08-03T06:36:29.256Z,25.1
2018-08-03T06:37:29.187Z,25.3
2018-08-03T06:38:29.117Z,25.4
2018-08-03T06:39:29.049Z,25.5
2018-08-03T06:40:29.002Z,25.6
2018-08-03T06:41:29.470Z,25.6
2018-08-03T06:42:29.387Z,25.7
2018-08-03T06:43:29.317Z,25.7
2018-08-03T06:44:29.240Z,25.7
2018-08-03T06:45:29.149Z,25.7
2018-08-03T06:46:29.127Z,25.6
2018-08-03T06:47:29.026Z,25.7
2018-08-03T06:48:29.151Z,25.8
2018-08-03T06:49:29.498Z,25.8
2018-08-03T06:50:29.413Z,25.9
2018-08-03T06:51:29.794Z,26
2018-08-03T06:52:29.701Z,26.1
2018-08-03T06:53:29.594Z,26.2
2018-08-03T06:54:29.512Z,26.3
2018-08-03T06:55:29.452Z,26.3
2018-08-03T06:56:29.401Z,26.4
2018-08-03T06:57:29.526Z,26.5
2018-08-03T06:58:29.685Z,26.7
2018-08-03T06:59:29.757Z,26.9
2018-08-03T07:00:30.749Z,27
2018-08-03T07:01:31.414Z,27.1
2018-08-03T07:02:31.356Z,27.2
2018-08-03T07:03:31.312Z,27.3
2018-08-03T07:04:31.563Z,27.3
2018-08-03T07:05:31.818Z,27.4
2018-08-03T07:06:31.791Z,27.3
2018-08-03T07:07:31.715Z,27.4
2018-08-03T07:08:32.110Z,27.4
2018-08-03T07:09:32.369Z,27.5
2018-08-03T07:10:32.282Z,27.6
2018-08-03T07:11:32.724Z,27.7
2018-08-03T07:12:32.641Z,27.8
2018-08-03T07:13:32.578Z,28
2018-08-03T07:14:32.720Z,28.1
2018-08-03T07:15:35.750Z,28.2
2018-08-03T07:16:35.908Z,28.3
2018-08-03T07:17:39.612Z,28.3
2018-08-03T07:18:39.534Z,28.3
2018-08-03T07:19:39.665Z,28.4
2018-08-03T07:20:39.786Z,28.5
2018-08-03T07:21:43.295Z,28.4
2018-08-03T07:22:45.933Z,28.4
2018-08-03T07:23:45.862Z,28.2
2018-08-03T07:24:45.794Z,28.4
2018-08-03T07:25:45.937Z,28.3
2018-08-03T07:26:45.995Z,28.3
2018-08-03T07:27:45.920Z,28.3
2018-08-03T07:28:45.848Z,28.1
2018-08-03T07:29:45.761Z,28.3
2018-08-03T07:30:45.707Z,28.4
2018-08-03T07:31:46.051Z,28.5
2018-08-03T07:32:46.028Z,28.5
2018-08-03T07:33:45.960Z,28.4
2018-08-03T07:34:45.884Z,28.5
2018-08-03T07:35:45.827Z,28.6
2018-08-03T07:36:45.834Z,28.6
2018-08-03T07:37:45.838Z,28.7
2018-08-03T07:38:46.001Z,28.8
2018-08-03T07:39:45.932Z,28.9
2018-08-03T07:40:46.109Z,29
2018-08-03T07:41:46.536Z,29.1
2018-08-03T07:42:46.570Z,29.2
2018-08-03T07:43:46.596Z,29.2
2018-08-03T07:44:46.550Z,29.1
2018-08-03T07:45:46.491Z,29
2018-08-03T07:46:46.414Z,29
2018-08-03T07:47:46.337Z,28.9
2018-08-03T07:48:46.293Z,29
2018-08-03T07:49:46.277Z,29.1
2018-08-03T07:50:46.209Z,29.2
2018-08-03T07:51:50.360Z,29.3
2018-08-03T07:52:50.292Z,29.4
2018-08-03T07:53:50.229Z,29.3
2018-08-03T07:54:50.146Z,29.5
2018-08-03T07:55:50.084Z,29.7
2018-08-03T07:56:50.012Z,29.7
2018-08-03T07:57:49.924Z,29.6
2018-08-03T07:58:49.863Z,29.4
2018-08-03T07:59:49.852Z,29.3
2018-08-03T08:00:49.769Z,29.2
2018-08-03T08:01:51.194Z,29.2
2018-08-03T08:02:51.129Z,29.2
2018-08-03T08:03:51.292Z,29.1
2018-08-03T08:04:51.262Z,29.3
2018-08-03T08:05:51.201Z,29.1
2018-08-03T08:06:51.128Z,28.9
2018-08-03T08:07:53.672Z,29
2018-08-03T08:08:53.600Z,29.1
2018-08-03T08:09:53.585Z,29.3
2018-08-03T08:10:56.131Z,29.4
2018-08-03T08:11:56.513Z,29.6
2018-08-03T08:12:59.440Z,29.6
2018-08-03T08:13:59.396Z,29.6
2018-08-03T08:14:59.566Z,29.3
2018-08-03T08:15:59.511Z,29.4
2018-08-03T08:16:59.749Z,29.5
2018-08-03T08:18:00.026Z,29.8
2018-08-03T08:19:00.024Z,29.5
2018-08-03T08:20:01.002Z,29.4
2018-08-03T08:21:00.929Z,29.2
2018-08-03T08:22:01.350Z,29.6
2018-08-03T08:23:01.295Z,29.8
2018-08-03T08:24:02.284Z,29.6
2018-08-03T08:25:02.234Z,29.4
2018-08-03T08:26:02.359Z,29.5
2018-08-03T08:27:02.400Z,29.5
2018-08-03T08:28:02.310Z,29.4
2018-08-03T08:29:02.225Z,29.5
2018-08-03T08:30:05.729Z,29.5
2018-08-03T08:31:05.654Z,29.5
2018-08-03T08:32:06.436Z,29.6
2018-08-03T08:33:06.364Z,29.5
2018-08-03T08:34:10.134Z,29.6
2018-08-03T08:35:10.043Z,29.6
2018-08-03T08:36:09.970Z,29.7
2018-08-03T08:37:10.114Z,29.5
2018-08-03T08:38:10.037Z,29.6
2018-08-03T08:39:09.988Z,29.6
2018-08-03T08:40:09.899Z,29.3
2018-08-03T08:41:09.799Z,29.4
2018-08-03T08:42:10.190Z,29.3
2018-08-03T08:43:13.894Z,29.6
2018-08-03T08:44:13.893Z,29.5
2018-08-03T08:45:13.844Z,29.6
2018-08-03T08:46:13.746Z,29.8
2018-08-03T08:47:13.921Z,30
2018-08-03T08:48:13.899Z,30.2
2018-08-03T08:49:14.115Z,30.3
2018-08-03T08:50:14.523Z,30.1
2018-08-03T08:51:17.370Z,30.2
2018-08-03T08:52:17.842Z,30.3
2018-08-03T08:53:17.991Z,30.5
2018-08-03T08:54:18.276Z,30.4
2018-08-03T08:55:18.187Z,30.3
2018-08-03T08:56:18.129Z,30
2018-08-03T08:57:18.057Z,30
2018-08-03T08:58:18.022Z,30.1
2018-08-03T08:59:17.967Z,30.2
2018-08-03T09:00:21.704Z,30
2018-08-03T09:01:21.644Z,30.1
2018-08-03T09:02:22.500Z,30.2
2018-08-03T09:03:22.422Z,30.4
2018-08-03T09:04:22.333Z,30.2
2018-08-03T09:05:22.277Z,30.3
2018-08-03T09:06:22.185Z,30.2
2018-08-03T09:07:22.325Z,29.8
2018-08-03T09:08:22.630Z,29.8
2018-08-03T09:09:22.593Z,29.8
2018-08-03T09:10:22.574Z,29.8
2018-08-03T09:11:22.507Z,29.8
2018-08-03T09:12:23.206Z,29.7
2018-08-03T09:13:23.138Z,29.5
2018-08-03T09:14:23.111Z,29.6
2018-08-03T09:15:23.017Z,29.6
2018-08-03T09:16:23.006Z,29.7
2018-08-03T09:17:25.594Z,29.9
2018-08-03T09:18:25.848Z,30
2018-08-03T09:19:28.588Z,30
2018-08-03T09:20:28.526Z,30.3
2018-08-03T09:21:28.449Z,30.4
2018-08-03T09:22:29.029Z,30.5
2018-08-03T09:23:28.945Z,30.7
2018-08-03T09:24:29.030Z,30.4
2018-08-03T09:25:30.077Z,30.1
2018-08-03T09:26:30.004Z,29.6
2018-08-03T09:27:29.945Z,29.7
2018-08-03T09:28:35.584Z,29.4
2018-08-03T09:29:36.760Z,29.5
2018-08-03T09:30:36.752Z,29.3
2018-08-03T09:31:36.677Z,29.4
2018-08-03T09:32:37.066Z,29.6
2018-08-03T09:33:37.004Z,29.7
2018-08-03T09:34:36.940Z,29.7
2018-08-03T09:35:36.889Z,29.8
2018-08-03T09:36:37.055Z,30
2018-08-03T09:37:37.316Z,29.9
2018-08-03T09:38:37.298Z,29.9
2018-08-03T09:39:37.246Z,30
2018-08-03T09:40:37.451Z,29.8
2018-08-03T09:41:41.126Z,29.4
2018-08-03T09:42:45.638Z,29.3
2018-08-03T09:43:49.651Z,29.4
2018-08-03T09:44:49.822Z,29.6
2018-08-03T09:45:55.165Z,29.5
2018-08-03T09:46:55.100Z,29.6
2018-08-03T09:47:55.109Z,29.7
2018-08-03T09:48:55.023Z,29.4
2018-08-03T09:49:55.416Z,29.4
2018-08-03T09:50:59.249Z,29.4
2018-08-03T09:51:59.648Z,29.3
2018-08-03T09:53:05.072Z,29.2
2018-08-03T09:54:05.017Z,29.2
2018-08-03T09:55:08.488Z,29
2018-08-03T09:56:08.843Z,29.1
2018-08-03T09:57:08.803Z,29.2
2018-08-03T09:58:09.182Z,29.2
2018-08-03T09:59:11.782Z,29.1
2018-08-03T10:00:11.713Z,29.2
2018-08-03T10:01:14.478Z,29.2
2018-08-03T10:02:18.439Z,29.4
2018-08-03T10:03:18.855Z,29.4
2018-08-03T10:04:19.801Z,29.5
2018-08-03T10:05:22.495Z,29.4
2018-08-03T10:06:22.456Z,29.4
2018-08-03T10:07:22.572Z,29.4
2018-08-03T10:08:22.891Z,29.4
2018-08-03T10:09:22.816Z,29.5
2018-08-03T10:10:22.786Z,29.6
2018-08-03T10:11:22.724Z,29.6
2018-08-03T10:12:22.991Z,29.5
2018-08-03T10:13:23.733Z,29.3
2018-08-03T10:14:23.661Z,29.4
2018-08-03T10:15:23.693Z,29.4
2018-08-03T10:16:23.679Z,29.6
2018-08-03T10:17:23.600Z,29.6
2018-08-03T10:18:23.521Z,29.6
2018-08-03T10:19:23.659Z,29.7
2018-08-03T10:20:23.571Z,30
2018-08-03T10:21:23.487Z,30
2018-08-03T10:22:23.579Z,30.1
2018-08-03T10:23:24.413Z,30
2018-08-03T10:24:24.337Z,29.8
2018-08-03T10:25:24.505Z,29.7
2018-08-03T10:26:24.407Z,29.7
2018-08-03T10:27:24.338Z,29.7
2018-08-03T10:28:24.250Z,29.6
2018-08-03T10:29:24.183Z,29.6
2018-08-03T10:30:24.099Z,29.6
2018-08-03T10:31:24.002Z,29.5
2018-08-03T10:32:23.944Z,29.3
2018-08-03T10:33:24.309Z,29.2
2018-08-03T10:34:24.253Z,29.2
2018-08-03T10:35:24.170Z,29.2
2018-08-03T10:36:24.082Z,29.4
2018-08-03T10:37:24.255Z,29.4
2018-08-03T10:38:24.163Z,29.2
2018-08-03T10:39:24.066Z,29.1
2018-08-03T10:40:23.975Z,29.1
2018-08-03T10:41:23.881Z,29.2
2018-08-03T10:42:23.800Z,29.3
2018-08-03T10:43:24.702Z,29.4
2018-08-03T10:44:24.648Z,28.9
2018-08-03T10:45:24.599Z,28.8
2018-08-03T10:46:24.519Z,29
2018-08-03T10:47:24.426Z,29
2018-08-03T10:48:24.356Z,29
2018-08-03T10:49:24.267Z,29
2018-08-03T10:50:24.165Z,29
2018-08-03T10:51:24.310Z,28.9
2018-08-03T10:52:24.485Z,28.7
2018-08-03T10:53:24.852Z,28.7
2018-08-03T10:54:24.762Z,28.7
2018-08-03T10:55:24.717Z,28.9
2018-08-03T10:56:24.637Z,29
2018-08-03T10:57:24.559Z,29
2018-08-03T10:58:24.848Z,28.9
2018-08-03T10:59:25.348Z,29
2018-08-03T11:00:25.493Z,28.9
2018-08-03T11:01:25.764Z,29
2018-08-03T11:02:26.304Z,29.2
2018-08-03T11:03:26.667Z,28.9
2018-08-03T11:04:26.816Z,28.9
2018-08-03T11:05:26.735Z,28.8
2018-08-03T11:06:26.660Z,28.7
2018-08-03T11:07:26.803Z,28.7
2018-08-03T11:08:26.710Z,28.9
2018-08-03T11:09:26.629Z,28.8
2018-08-03T11:10:26.538Z,28.8
2018-08-03T11:11:26.450Z,28.9
2018-08-03T11:12:26.360Z,29
2018-08-03T11:13:31.843Z,28.9
2018-08-03T11:14:32.245Z,28.9
2018-08-03T11:15:32.161Z,29
2018-08-03T11:16:32.053Z,28.9
2018-08-03T11:17:31.962Z,28.9
2018-08-03T11:18:32.891Z,29.1
2018-08-03T11:19:35.746Z,29.1
2018-08-03T11:20:35.654Z,29.2
2018-08-03T11:21:35.580Z,29.4
2018-08-03T11:22:35.491Z,29.2
2018-08-03T11:23:35.843Z,29.1
2018-08-03T11:24:36.011Z,29.2
2018-08-03T11:25:35.920Z,29.1
2018-08-03T11:26:35.827Z,29.1
2018-08-03T11:27:35.732Z,29
2018-08-03T11:28:35.654Z,29.1
2018-08-03T11:29:35.888Z,29.2
2018-08-03T11:30:35.877Z,29.3
2018-08-03T11:31:35.793Z,29.4
2018-08-03T11:32:35.939Z,29.4
2018-08-03T11:33:39.081Z,29.4
2018-08-03T11:34:42.839Z,29.4
2018-08-03T11:35:42.764Z,29.5
2018-08-03T11:36:42.902Z,29.4
2018-08-03T11:37:42.828Z,29.3
2018-08-03T11:38:42.739Z,29.2
2018-08-03T11:39:43.642Z,29.2
2018-08-03T11:40:43.720Z,29
2018-08-03T11:41:44.083Z,28.9
2018-08-03T11:42:44.001Z,28.9
2018-08-03T11:43:44.603Z,29
2018-08-03T11:44:44.535Z,28.8
2018-08-03T11:45:44.431Z,28.9
2018-08-03T11:46:44.365Z,28.7
2018-08-03T11:47:44.488Z,28.7
2018-08-03T11:48:44.446Z,28.7
2018-08-03T11:49:44.351Z,28.8
2018-08-03T11:50:44.256Z,28.8
2018-08-03T11:51:44.221Z,29
2018-08-03T11:52:44.136Z,29
2018-08-03T11:53:44.481Z,29.1
2018-08-03T11:54:44.392Z,29
2018-08-03T11:55:44.299Z,29
2018-08-03T11:56:44.235Z,28.9
2018-08-03T11:57:44.189Z,28.7
2018-08-03T11:58:44.113Z,28.9
2018-08-03T11:59:44.050Z,29
2018-08-03T12:00:44.130Z,29.1
2018-08-03T12:01:44.180Z,29.2
2018-08-03T12:02:44.172Z,29.1
2018-08-03T12:03:44.564Z,29
2018-08-03T12:04:44.470Z,29.1
2018-08-03T12:05:44.374Z,29.2
2018-08-03T12:06:44.299Z,29.3
2018-08-03T12:07:44.206Z,29.2
2018-08-03T12:08:45.115Z,29.2
2018-08-03T12:09:45.038Z,29.1
2018-08-03T12:10:44.941Z,29.1
2018-08-03T12:11:48.102Z,28.9
2018-08-03T12:12:48.007Z,28.9
2018-08-03T12:13:48.369Z,29.1
2018-08-03T12:14:51.031Z,29.1
2018-08-03T12:15:50.937Z,29.2
2018-08-03T12:16:51.100Z,29.2
2018-08-03T12:17:51.057Z,29.1
2018-08-03T12:18:51.256Z,29.2
2018-08-03T12:19:52.191Z,29.2
2018-08-03T12:20:52.335Z,29.1
2018-08-03T12:21:52.269Z,29
2018-08-03T12:22:52.199Z,29.2
2018-08-03T12:23:55.924Z,29.1
2018-08-03T12:24:56.336Z,29.1
2018-08-03T12:25:56.245Z,29.1
2018-08-03T12:26:56.402Z,29.1
2018-08-03T12:27:56.311Z,29.2
2018-08-03T12:28:56.218Z,29.3
2018-08-03T12:29:57.129Z,29.2
2018-08-03T12:30:57.046Z,29.2
2018-08-03T12:31:56.981Z,29.2
2018-08-03T12:32:56.913Z,29
2018-08-03T12:33:57.267Z,28.8
2018-08-03T12:34:57.178Z,28.8
2018-08-03T12:35:57.100Z,28.9
2018-08-03T12:36:57.032Z,28.9
2018-08-03T12:37:57.131Z,28.9
2018-08-03T12:38:57.057Z,29
2018-08-03T12:39:56.997Z,29.1
2018-08-03T12:40:56.914Z,29.1
2018-08-03T12:41:56.832Z,29.1
2018-08-03T12:42:56.744Z,29.1
2018-08-03T12:43:57.112Z,29.2
2018-08-03T12:44:57.088Z,28.9
2018-08-03T12:46:00.184Z,29
2018-08-03T12:47:04.005Z,29.1
2018-08-03T12:48:03.927Z,29.1
2018-08-03T12:49:03.855Z,29.2
2018-08-03T12:50:03.771Z,28.9
2018-08-03T12:51:03.728Z,28.7
2018-08-03T12:52:03.642Z,28.6
2018-08-03T12:53:03.571Z,28.6
2018-08-03T12:54:03.932Z,28.7
2018-08-03T12:55:06.849Z,28.8
2018-08-03T12:56:06.773Z,28.9
2018-08-03T12:57:07.680Z,29.1
2018-08-03T12:58:07.593Z,29
2018-08-03T12:59:07.527Z,29.1
2018-08-03T13:00:07.449Z,29.1
2018-08-03T13:01:07.479Z,29.2
2018-08-03T13:02:07.610Z,29.2
2018-08-03T13:03:07.552Z,29.2
2018-08-03T13:04:08.048Z,29.3
2018-08-03T13:05:10.880Z,29.2
2018-08-03T13:06:10.789Z,29.2
2018-08-03T13:07:10.855Z,29.3
2018-08-03T13:08:11.638Z,29.4
2018-08-03T13:09:12.305Z,29.5
2018-08-03T13:10:12.217Z,29.4
2018-08-03T13:11:12.169Z,29.2
2018-08-03T13:12:14.610Z,29
2018-08-03T13:13:14.635Z,29
2018-08-03T13:14:15.600Z,29.1
2018-08-03T13:15:15.517Z,29.2
2018-08-03T13:16:15.450Z,29.2
2018-08-03T13:17:15.362Z,29.1
2018-08-03T13:18:15.278Z,29.1
2018-08-03T13:19:15.203Z,29.1
2018-08-03T13:20:15.130Z,28.9
2018-08-03T13:21:15.443Z,28.9
2018-08-03T13:22:15.621Z,28.9
2018-08-03T13:23:15.539Z,29
2018-08-03T13:24:15.931Z,29
2018-08-03T13:25:15.831Z,29.1
2018-08-03T13:26:15.741Z,29.2
2018-08-03T13:27:18.563Z,29.1
2018-08-03T13:28:18.727Z,29